Cabano, Canada
Current Conditions -  °F | °C
As of 10:53 PM on Thursday 27 Nov 2014 (Local Time) from KFVE Reporting Station
Clear Clear  
Wind Chill: 11°   Ceiling: Unl
Heat Index: 11°   Visibility: 10mi
Dew Point:   Wind: 3mph
Humidity: 84%   Direction: 320°NW
Pressure: 29.96"   Gusts: NA
Location:  47.68°N, 68.88°W
Report Text: KFVE 280353Z AUTO 32003KT 10SM CLR M12/M14 A2996 RMK AO2 SLP163 T11171139
Loading
Personal Weather Stations






























Interactive Weather Map New forecast layout! Learn more

10-Day Weather Forecast

Advertisements
Track Severe Weather on mobile